sensor_id;sensor_type;location;lat;lon;timestamp;pressure;altitude;pressure_sealevel;temperature;humidity
54389;BME280;40975;50.390;8.640;2023-07-31T00:00:48;98813.91;;;16.97;89.38
54389;BME280;40975;50.390;8.640;2023-07-31T00:03:14;98814.13;;;16.96;90.31
54389;BME280;40975;50.390;8.640;2023-07-31T00:05:39;98816.16;;;16.93;90.56
54389;BME280;40975;50.390;8.640;2023-07-31T00:08:04;98822.91;;;16.89;92.10
54389;BME280;40975;50.390;8.640;2023-07-31T00:10:30;98813.41;;;16.87;92.09
54389;BME280;40975;50.390;8.640;2023-07-31T00:12:55;98818.13;;;16.85;92.60
54389;BME280;40975;50.390;8.640;2023-07-31T00:15:20;98818.69;;;16.80;94.26
54389;BME280;40975;50.390;8.640;2023-07-31T00:17:46;98817.00;;;16.72;94.54
54389;BME280;40975;50.390;8.640;2023-07-31T00:20:11;98819.22;;;16.69;95.49
54389;BME280;40975;50.390;8.640;2023-07-31T00:22:37;98821.53;;;16.72;94.72
54389;BME280;40975;50.390;8.640;2023-07-31T00:25:02;98813.50;;;16.72;95.57
54389;BME280;40975;50.390;8.640;2023-07-31T00:27:28;98822.09;;;16.67;96.05
54389;BME280;40975;50.390;8.640;2023-07-31T00:29:53;98811.13;;;16.62;96.79
54389;BME280;40975;50.390;8.640;2023-07-31T00:32:18;98808.22;;;16.57;97.46
54389;BME280;40975;50.390;8.640;2023-07-31T00:34:43;98809.88;;;16.58;98.43
54389;BME280;40975;50.390;8.640;2023-07-31T00:37:09;98805.53;;;16.57;97.84
54389;BME280;40975;50.390;8.640;2023-07-31T00:39:34;98805.31;;;16.52;98.58
54389;BME280;40975;50.390;8.640;2023-07-31T00:42:00;98800.97;;;16.51;98.87
54389;BME280;40975;50.390;8.640;2023-07-31T00:44:26;98798.28;;;16.51;100.00
54389;BME280;40975;50.390;8.640;2023-07-31T00:46:53;98808.09;;;16.43;100.00
54389;BME280;40975;50.390;8.640;2023-07-31T00:49:18;98806.00;;;16.39;100.00
54389;BME280;40975;50.390;8.640;2023-07-31T00:51:45;98804.81;;;16.41;100.00
54389;BME280;40975;50.390;8.640;2023-07-31T00:54:10;98808.28;;;16.42;100.00
54389;BME280;40975;50.390;8.640;2023-07-31T00:56:40;98802.50;;;16.38;100.00
54389;BME280;40975;50.390;8.640;2023-07-31T00:59:05;98802.50;;;16.38;100.00
54389;BME280;40975;50.390;8.640;2023-07-31T01:01:32;98792.81;;;16.37;100.00
54389;BME280;40975;50.390;8.640;2023-07-31T01:03:57;98788.25;;;16.38;100.00
54389;BME280;40975;50.390;8.640;2023-07-31T01:09:44;98788.47;;;16.36;100.00
54389;BME280;40975;50.390;8.640;2023-07-31T01:12:16;98786.00;;;16.35;100.00
54389;BME280;40975;50.390;8.640;2023-07-31T01:17:26;98783.09;;;16.36;100.00
54389;BME280;40975;50.390;8.640;2023-07-31T01:19:51;98780.44;;;16.36;100.00
54389;BME280;40975;50.390;8.640;2023-07-31T01:25:10;98782.72;;;16.39;100.00
54389;BME280;40975;50.390;8.640;2023-07-31T01:28:03;98780.88;;;16.40;100.00
54389;BME280;40975;50.390;8.640;2023-07-31T01:30:33;98791.22;;;16.43;100.00
54389;BME280;40975;50.390;8.640;2023-07-31T01:33:01;98788.31;;;16.44;100.00
54389;BME280;40975;50.390;8.640;2023-07-31T01:35:33;98788.16;;;16.46;100.00
54389;BME280;40975;50.390;8.640;2023-07-31T01:37:58;98782.22;;;16.51;100.00
54389;BME280;40975;50.390;8.640;2023-07-31T01:40:24;98773.97;;;16.52;100.00
54389;BME280;40975;50.390;8.640;2023-07-31T01:42:49;98776.66;;;16.52;100.00
54389;BME280;40975;50.390;8.640;2023-07-31T01:45:14;98764.91;;;16.53;100.00
54389;BME280;40975;50.390;8.640;2023-07-31T01:47:40;98765.56;;;16.55;99.98
54389;BME280;40975;50.390;8.640;2023-07-31T01:50:05;98758.13;;;16.57;99.77
54389;BME280;40975;50.390;8.640;2023-07-31T01:52:31;98761.88;;;16.63;100.00
54389;BME280;40975;50.390;8.640;2023-07-31T01:54:56;98763.75;;;16.62;100.00
54389;BME280;40975;50.390;8.640;2023-07-31T01:57:21;98754.50;;;16.65;100.00
54389;BME280;40975;50.390;8.640;2023-07-31T01:59:47;98754.69;;;16.63;100.00
54389;BME280;40975;50.390;8.640;2023-07-31T02:02:12;98752.84;;;16.64;99.96
54389;BME280;40975;50.390;8.640;2023-07-31T02:04:38;98748.69;;;16.61;99.71
54389;BME280;40975;50.390;8.640;2023-07-31T02:07:04;98750.75;;;16.59;100.00
54389;BME280;40975;50.390;8.640;2023-07-31T02:09:30;98755.06;;;16.60;100.00
54389;BME280;40975;50.390;8.640;2023-07-31T02:11:55;98756.94;;;16.60;100.00
54389;BME280;40975;50.390;8.640;2023-07-31T02:14:20;98754.25;;;16.60;100.00
54389;BME280;40975;50.390;8.640;2023-07-31T02:16:46;98748.91;;;16.60;100.00
54389;BME280;40975;50.390;8.640;2023-07-31T02:19:11;98760.44;;;16.60;100.00
54389;BME280;40975;50.390;8.640;2023-07-31T02:21:36;98757.38;;;16.63;100.00
54389;BME280;40975;50.390;8.640;2023-07-31T02:24:02;98752.19;;;16.62;100.00
54389;BME280;40975;50.390;8.640;2023-07-31T02:26:27;98749.50;;;16.62;100.00
54389;BME280;40975;50.390;8.640;2023-07-31T02:28:52;98749.34;;;16.63;100.00
54389;BME280;40975;50.390;8.640;2023-07-31T02:31:18;98745.63;;;16.65;100.00
54389;BME280;40975;50.390;8.640;2023-07-31T02:33:44;98743.59;;;16.67;100.00
54389;BME280;40975;50.390;8.640;2023-07-31T02:36:09;98743.59;;;16.67;100.00
54389;BME280;40975;50.390;8.640;2023-07-31T02:38:36;98736.00;;;16.70;100.00
54389;BME280;40975;50.390;8.640;2023-07-31T02:41:01;98735.59;;;16.73;99.65
54389;BME280;40975;50.390;8.640;2023-07-31T02:43:26;98741.16;;;16.72;99.40
54389;BME280;40975;50.390;8.640;2023-07-31T02:45:52;98738.47;;;16.72;99.21
54389;BME280;40975;50.390;8.640;2023-07-31T02:48:18;98733.94;;;16.72;99.45
54389;BME280;40975;50.390;8.640;2023-07-31T02:50:44;98737.25;;;16.74;98.96
54389;BME280;40975;50.390;8.640;2023-07-31T02:53:09;98738.09;;;16.75;99.22
54389;BME280;40975;50.390;8.640;2023-07-31T02:55:35;98737.25;;;16.74;99.96
54389;BME280;40975;50.390;8.640;2023-07-31T02:58:01;98736.47;;;16.81;99.46
54389;BME280;40975;50.390;8.640;2023-07-31T03:00:26;98736.22;;;16.75;99.63
54389;BME280;40975;50.390;8.640;2023-07-31T03:02:51;98728.38;;;16.74;99.79
54389;BME280;40975;50.390;8.640;2023-07-31T03:05:17;98734.78;;;16.73;100.00
54389;BME280;40975;50.390;8.640;2023-07-31T03:07:42;98734.13;;;16.71;100.00
54389;BME280;40975;50.390;8.640;2023-07-31T03:10:08;98721.56;;;16.71;100.00
54389;BME280;40975;50.390;8.640;2023-07-31T03:12:33;98733.31;;;16.70;100.00
54389;BME280;40975;50.390;8.640;2023-07-31T03:14:58;98727.53;;;16.67;100.00
54389;BME280;40975;50.390;8.640;2023-07-31T03:17:24;98723.66;;;16.76;100.00
54389;BME280;40975;50.390;8.640;2023-07-31T03:19:49;98732.09;;;16.73;100.00
54389;BME280;40975;50.390;8.640;2023-07-31T03:22:14;98741.09;;;16.65;100.00
54389;BME280;40975;50.390;8.640;2023-07-31T03:24:40;98736.38;;;16.67;100.00
54389;BME280;40975;50.390;8.640;2023-07-31T03:27:05;98739.66;;;16.62;100.00
54389;BME280;40975;50.390;8.640;2023-07-31T03:29:31;98745.00;;;16.62;100.00
54389;BME280;40975;50.390;8.640;2023-07-31T03:31:56;98740.03;;;16.59;100.00
54389;BME280;40975;50.390;8.640;2023-07-31T03:34:22;98740.44;;;16.56;100.00
54389;BME280;40975;50.390;8.640;2023-07-31T03:36:48;98738.94;;;16.54;100.00
54389;BME280;40975;50.390;8.640;2023-07-31T03:39:13;98741.63;;;16.54;100.00
54389;BME280;40975;50.390;8.640;2023-07-31T03:41:38;98736.47;;;16.52;100.00
54389;BME280;40975;50.390;8.640;2023-07-31T03:44:03;98735.84;;;16.50;100.00
54389;BME280;40975;50.390;8.640;2023-07-31T03:46:30;98741.19;;;16.50;100.00
54389;BME280;40975;50.390;8.640;2023-07-31T03:48:55;98742.03;;;16.51;100.00
54389;BME280;40975;50.390;8.640;2023-07-31T03:51:21;98734.44;;;16.54;100.00
54389;BME280;40975;50.390;8.640;2023-07-31T03:53:47;98731.75;;;16.54;100.00
54389;BME280;40975;50.390;8.640;2023-07-31T03:56:13;98724.53;;;16.55;100.00
54389;BME280;40975;50.390;8.640;2023-07-31T03:58:38;98723.31;;;16.57;100.00
54389;BME280;40975;50.390;8.640;2023-07-31T04:01:04;98716.72;;;16.53;100.00
54389;BME280;40975;50.390;8.640;2023-07-31T04:03:29;98719.59;;;16.52;100.00
54389;BME280;40975;50.390;8.640;2023-07-31T04:05:55;98717.94;;;16.51;100.00
54389;BME280;40975;50.390;8.640;2023-07-31T04:08:21;98714.41;;;16.50;100.00
54389;BME280;40975;50.390;8.640;2023-07-31T04:10:46;98722.69;;;16.55;100.00
54389;BME280;40975;50.390;8.640;2023-07-31T04:13:12;98718.16;;;16.56;100.00
54389;BME280;40975;50.390;8.640;2023-07-31T04:15:38;98722.44;;;16.50;100.00
54389;BME280;40975;50.390;8.640;2023-07-31T04:18:04;98717.03;;;16.43;100.00
54389;BME280;40975;50.390;8.640;2023-07-31T04:20:29;98722.81;;;16.40;100.00
54389;BME280;40975;50.390;8.640;2023-07-31T04:22:55;98727.72;;;16.37;100.00
54389;BME280;40975;50.390;8.640;2023-07-31T04:25:20;98725.03;;;16.37;100.00
54389;BME280;40975;50.390;8.640;2023-07-31T04:27:45;98727.31;;;16.40;100.00
54389;BME280;40975;50.390;8.640;2023-07-31T04:30:11;98724.19;;;16.36;100.00
54389;BME280;40975;50.390;8.640;2023-07-31T04:32:36;98719.03;;;16.35;100.00
54389;BME280;40975;50.390;8.640;2023-07-31T04:35:02;98720.50;;;16.37;100.00
54389;BME280;40975;50.390;8.640;2023-07-31T04:37:27;98719.09;;;16.41;100.00
54389;BME280;40975;50.390;8.640;2023-07-31T04:39:53;98716.22;;;16.43;100.00
54389;BME280;40975;50.390;8.640;2023-07-31T04:42:18;98707.16;;;16.44;100.00
54389;BME280;40975;50.390;8.640;2023-07-31T04:44:43;98694.59;;;16.44;100.00
54389;BME280;40975;50.390;8.640;2023-07-31T04:47:09;98693.81;;;16.51;100.00
54389;BME280;40975;50.390;8.640;2023-07-31T04:49:34;98692.41;;;16.55;100.00
54389;BME280;40975;50.390;8.640;2023-07-31T04:51:59;98695.06;;;16.55;100.00
54389;BME280;40975;50.390;8.640;2023-07-31T04:54:24;98687.88;;;16.55;100.00
54389;BME280;40975;50.390;8.640;2023-07-31T04:56:50;98701.88;;;16.57;100.00
54389;BME280;40975;50.390;8.640;2023-07-31T04:59:15;98708.72;;;16.60;100.00
54389;BME280;40975;50.390;8.640;2023-07-31T05:01:40;98703.38;;;16.60;100.00
54389;BME280;40975;50.390;8.640;2023-07-31T05:04:06;98704.56;;;16.57;100.00
54389;BME280;40975;50.390;8.640;2023-07-31T05:06:31;98702.34;;;16.61;100.00
54389;BME280;40975;50.390;8.640;2023-07-31T05:08:57;98708.91;;;16.58;100.00
54389;BME280;40975;50.390;8.640;2023-07-31T05:11:22;98707.50;;;16.62;100.00
54389;BME280;40975;50.390;8.640;2023-07-31T05:13:47;98708.94;;;16.65;100.00
54389;BME280;40975;50.390;8.640;2023-07-31T05:16:13;98711.09;;;16.76;100.00
54389;BME280;40975;50.390;8.640;2023-07-31T05:18:38;98710.09;;;16.84;100.00
54389;BME280;40975;50.390;8.640;2023-07-31T05:21:03;98715.91;;;16.88;100.00
54389;BME280;40975;50.390;8.640;2023-07-31T05:23:29;98715.25;;;16.86;100.00
54389;BME280;40975;50.390;8.640;2023-07-31T05:26:02;98709.09;;;16.85;100.00
54389;BME280;40975;50.390;8.640;2023-07-31T05:28:28;98716.78;;;16.95;100.00
54389;BME280;40975;50.390;8.640;2023-07-31T05:30:59;98720.91;;;16.98;100.00
54389;BME280;40975;50.390;8.640;2023-07-31T05:33:24;98711.25;;;16.97;100.00
54389;BME280;40975;50.390;8.640;2023-07-31T05:35:49;98710.44;;;17.03;100.00
54389;BME280;40975;50.390;8.640;2023-07-31T05:38:14;98697.63;;;16.98;100.00
54389;BME280;40975;50.390;8.640;2023-07-31T05:40:40;98698.88;;;16.96;100.00
54389;BME280;40975;50.390;8.640;2023-07-31T05:43:05;98696.78;;;16.98;100.00
54389;BME280;40975;50.390;8.640;2023-07-31T05:45:33;98684.88;;;17.00;100.00
54389;BME280;40975;50.390;8.640;2023-07-31T05:47:58;98689.41;;;17.06;100.00
54389;BME280;40975;50.390;8.640;2023-07-31T05:50:23;98692.53;;;17.10;100.00
54389;BME280;40975;50.390;8.640;2023-07-31T05:52:49;98696.66;;;17.13;100.00
54389;BME280;40975;50.390;8.640;2023-07-31T05:55:14;98697.75;;;17.25;100.00
54389;BME280;40975;50.390;8.640;2023-07-31T05:57:40;98697.34;;;17.28;100.00
54389;BME280;40975;50.390;8.640;2023-07-31T06:00:05;98695.09;;;17.32;100.00
54389;BME280;40975;50.390;8.640;2023-07-31T06:02:32;98682.91;;;17.29;100.00
54389;BME280;40975;50.390;8.640;2023-07-31T06:05:01;98687.06;;;17.38;100.00
54389;BME280;40975;50.390;8.640;2023-07-31T06:07:26;98684.84;;;17.49;100.00
54389;BME280;40975;50.390;8.640;2023-07-31T06:09:52;98677.22;;;17.59;100.00
54389;BME280;40975;50.390;8.640;2023-07-31T06:12:19;98678.06;;;17.66;100.00
54389;BME280;40975;50.390;8.640;2023-07-31T06:14:45;98681.16;;;17.70;100.00
54389;BME280;40975;50.390;8.640;2023-07-31T06:17:10;98667.13;;;17.75;100.00
54389;BME280;40975;50.390;8.640;2023-07-31T06:19:35;98681.38;;;17.75;100.00
54389;BME280;40975;50.390;8.640;2023-07-31T06:22:01;98687.34;;;17.77;100.00
54389;BME280;40975;50.390;8.640;2023-07-31T06:24:27;98687.19;;;17.79;100.00
54389;BME280;40975;50.390;8.640;2023-07-31T06:26:52;98679.31;;;17.70;100.00
54389;BME280;40975;50.390;8.640;2023-07-31T06:29:18;98675.38;;;17.66;100.00
54389;BME280;40975;50.390;8.640;2023-07-31T06:31:43;98683.00;;;17.56;100.00
54389;BME280;40975;50.390;8.640;2023-07-31T06:34:08;98682.16;;;17.62;100.00
54389;BME280;40975;50.390;8.640;2023-07-31T06:36:34;98680.94;;;17.58;100.00
54389;BME280;40975;50.390;8.640;2023-07-31T06:38:59;98671.44;;;17.55;100.00
54389;BME280;40975;50.390;8.640;2023-07-31T06:41:24;98661.13;;;17.52;100.00
54389;BME280;40975;50.390;8.640;2023-07-31T06:43:50;98659.47;;;17.51;100.00
54389;BME280;40975;50.390;8.640;2023-07-31T06:46:16;98664.63;;;17.60;100.00
54389;BME280;40975;50.390;8.640;2023-07-31T06:48:41;98660.91;;;17.61;100.00
54389;BME280;40975;50.390;8.640;2023-07-31T06:51:07;98666.91;;;17.56;100.00
54389;BME280;40975;50.390;8.640;2023-07-31T06:53:32;98675.78;;;17.56;100.00
54389;BME280;40975;50.390;8.640;2023-07-31T06:55:57;98681.97;;;17.64;100.00
54389;BME280;40975;50.390;8.640;2023-07-31T06:58:23;98678.47;;;17.63;100.00
54389;BME280;40975;50.390;8.640;2023-07-31T07:00:48;98679.53;;;17.76;99.97
54389;BME280;40975;50.390;8.640;2023-07-31T07:03:15;98673.78;;;17.99;97.75
54389;BME280;40975;50.390;8.640;2023-07-31T07:05:41;98676.28;;;18.21;96.57
54389;BME280;40975;50.390;8.640;2023-07-31T07:08:06;98678.94;;;18.47;95.27
54389;BME280;40975;50.390;8.640;2023-07-31T07:10:31;98673.94;;;18.64;93.82
54389;BME280;40975;50.390;8.640;2023-07-31T07:12:57;98679.69;;;18.82;93.21
54389;BME280;40975;50.390;8.640;2023-07-31T07:15:22;98676.41;;;18.73;91.70
54389;BME280;40975;50.390;8.640;2023-07-31T07:17:47;98659.63;;;18.84;91.49
54389;BME280;40975;50.390;8.640;2023-07-31T07:20:13;98654.00;;;19.06;89.11
54389;BME280;40975;50.390;8.640;2023-07-31T07:22:38;98664.84;;;19.31;89.18
54389;BME280;40975;50.390;8.640;2023-07-31T07:25:04;98654.47;;;19.41;88.13
54389;BME280;40975;50.390;8.640;2023-07-31T07:27:29;98656.91;;;19.04;88.85
54389;BME280;40975;50.390;8.640;2023-07-31T07:29:55;98652.59;;;18.97;89.56
54389;BME280;40975;50.390;8.640;2023-07-31T07:32:21;98662.53;;;18.89;90.90
54389;BME280;40975;50.390;8.640;2023-07-31T07:34:47;98651.81;;;18.62;90.66
54389;BME280;40975;50.390;8.640;2023-07-31T07:37:13;98659.50;;;18.59;92.08
54389;BME280;40975;50.390;8.640;2023-07-31T07:39:38;98651.88;;;18.49;92.92
54389;BME280;40975;50.390;8.640;2023-07-31T07:42:03;98642.72;;;18.63;92.31
54389;BME280;40975;50.390;8.640;2023-07-31T07:44:29;98638.38;;;18.69;92.07
54389;BME280;40975;50.390;8.640;2023-07-31T07:46:54;98652.19;;;18.79;92.04
54389;BME280;40975;50.390;8.640;2023-07-31T07:49:19;98655.69;;;18.87;90.40
54389;BME280;40975;50.390;8.640;2023-07-31T07:51:48;98655.69;;;18.93;90.39
54389;BME280;40975;50.390;8.640;2023-07-31T07:54:13;98646.19;;;18.98;89.87
54389;BME280;40975;50.390;8.640;2023-07-31T07:56:38;98649.69;;;18.98;89.89
54389;BME280;40975;50.390;8.640;2023-07-31T07:59:04;98656.06;;;19.04;90.71
54389;BME280;40975;50.390;8.640;2023-07-31T08:01:29;98653.22;;;18.85;90.67
54389;BME280;40975;50.390;8.640;2023-07-31T08:03:55;98648.25;;;18.95;90.30
54389;BME280;40975;50.390;8.640;2023-07-31T08:06:20;98658.59;;;19.37;89.54
54389;BME280;40975;50.390;8.640;2023-07-31T08:08:46;98658.31;;;19.52;86.67
54389;BME280;40975;50.390;8.640;2023-07-31T08:11:11;98651.78;;;19.35;85.67
54389;BME280;40975;50.390;8.640;2023-07-31T08:13:36;98641.34;;;19.52;86.95
54389;BME280;40975;50.390;8.640;2023-07-31T08:16:03;98646.66;;;19.65;85.46
54389;BME280;40975;50.390;8.640;2023-07-31T08:18:30;98642.28;;;19.71;85.07
54389;BME280;40975;50.390;8.640;2023-07-31T08:20:55;98641.41;;;19.45;86.83
54389;BME280;40975;50.390;8.640;2023-07-31T08:23:20;98634.03;;;19.27;87.20
54389;BME280;40975;50.390;8.640;2023-07-31T08:25:46;98630.22;;;19.48;86.59
54389;BME280;40975;50.390;8.640;2023-07-31T08:28:11;98632.56;;;19.70;85.63
54389;BME280;40975;50.390;8.640;2023-07-31T08:30:37;98643.03;;;20.10;84.59
54389;BME280;40975;50.390;8.640;2023-07-31T08:33:02;98644.69;;;20.55;80.54
54389;BME280;40975;50.390;8.640;2023-07-31T08:35:28;98641.63;;;21.07;78.71
54389;BME280;40975;50.390;8.640;2023-07-31T08:37:53;98642.03;;;20.92;77.40
54389;BME280;40975;50.390;8.640;2023-07-31T08:40:19;98634.28;;;21.15;77.54
54389;BME280;40975;50.390;8.640;2023-07-31T08:42:53;98636.25;;;20.89;78.30
54389;BME280;40975;50.390;8.640;2023-07-31T08:45:19;98632.84;;;21.12;78.65
54389;BME280;40975;50.390;8.640;2023-07-31T08:47:49;98628.00;;;20.84;78.12
54389;BME280;40975;50.390;8.640;2023-07-31T08:50:17;98624.09;;;21.17;78.91
54389;BME280;40975;50.390;8.640;2023-07-31T08:52:43;98625.63;;;21.55;74.98
54389;BME280;40975;50.390;8.640;2023-07-31T08:55:09;98625.00;;;21.10;77.02
54389;BME280;40975;50.390;8.640;2023-07-31T08:57:35;98622.22;;;20.99;77.47
54389;BME280;40975;50.390;8.640;2023-07-31T09:00:02;98618.38;;;20.76;76.86
54389;BME280;40975;50.390;8.640;2023-07-31T09:02:48;98609.13;;;20.65;77.01
54389;BME280;40975;50.390;8.640;2023-07-31T09:05:17;98604.22;;;20.37;78.74
54389;BME280;40975;50.390;8.640;2023-07-31T09:07:45;98614.50;;;20.46;79.01
54389;BME280;40975;50.390;8.640;2023-07-31T09:10:12;98610.09;;;20.33;80.15
54389;BME280;40975;50.390;8.640;2023-07-31T09:12:38;98610.53;;;20.05;83.15
54389;BME280;40975;50.390;8.640;2023-07-31T09:15:04;98610.03;;;19.64;87.20
54389;BME280;40975;50.390;8.640;2023-07-31T09:17:35;98612.56;;;19.52;92.23
54389;BME280;40975;50.390;8.640;2023-07-31T09:20:17;98614.50;;;19.06;90.10
54389;BME280;40975;50.390;8.640;2023-07-31T09:22:44;98617.88;;;18.82;92.65
54389;BME280;40975;50.390;8.640;2023-07-31T09:25:23;98623.09;;;18.70;99.13
54389;BME280;40975;50.390;8.640;2023-07-31T09:27:57;98615.84;;;18.70;100.00
54389;BME280;40975;50.390;8.640;2023-07-31T09:30:22;98602.88;;;18.60;100.00
54389;BME280;40975;50.390;8.640;2023-07-31T09:32:50;98616.09;;;18.55;100.00
54389;BME280;40975;50.390;8.640;2023-07-31T09:37:40;98622.56;;;18.41;100.00
54389;BME280;40975;50.390;8.640;2023-07-31T09:40:06;98619.88;;;18.41;100.00
54389;BME280;40975;50.390;8.640;2023-07-31T09:42:33;98621.94;;;18.32;100.00
54389;BME280;40975;50.390;8.640;2023-07-31T09:45:08;98615.94;;;18.23;100.00
54389;BME280;40975;50.390;8.640;2023-07-31T09:47:34;98618.84;;;18.22;100.00
54389;BME280;40975;50.390;8.640;2023-07-31T09:50:00;98614.28;;;18.36;100.00
54389;BME280;40975;50.390;8.640;2023-07-31T09:52:26;98617.59;;;18.44;100.00
54389;BME280;40975;50.390;8.640;2023-07-31T09:54:51;98617.34;;;18.53;100.00
54389;BME280;40975;50.390;8.640;2023-07-31T09:57:16;98620.41;;;18.70;100.00
54389;BME280;40975;50.390;8.640;2023-07-31T09:59:42;98617.88;;;18.82;100.00
54389;BME280;40975;50.390;8.640;2023-07-31T10:02:13;98614.34;;;18.94;100.00
54389;BME280;40975;50.390;8.640;2023-07-31T10:04:41;98606.44;;;19.06;100.00
54389;BME280;40975;50.390;8.640;2023-07-31T10:07:08;98596.56;;;18.93;100.00
54389;BME280;40975;50.390;8.640;2023-07-31T10:09:34;98599.63;;;18.97;100.00
54389;BME280;40975;50.390;8.640;2023-07-31T10:12:00;98595.50;;;18.88;100.00
54389;BME280;40975;50.390;8.640;2023-07-31T10:14:29;98588.69;;;18.92;100.00
54389;BME280;40975;50.390;8.640;2023-07-31T10:16:57;98580.69;;;18.72;100.00
54389;BME280;40975;50.390;8.640;2023-07-31T10:19:23;98578.13;;;18.97;100.00
54389;BME280;40975;50.390;8.640;2023-07-31T10:21:49;98578.34;;;19.34;100.00
54389;BME280;40975;50.390;8.640;2023-07-31T10:24:15;98571.19;;;19.47;100.00
54389;BME280;40975;50.390;8.640;2023-07-31T10:26:45;98571.81;;;19.49;100.00
54389;BME280;40975;50.390;8.640;2023-07-31T10:29:12;98572.53;;;19.63;100.00
54389;BME280;40975;50.390;8.640;2023-07-31T10:31:38;98561.13;;;19.67;100.00
54389;BME280;40975;50.390;8.640;2023-07-31T10:34:04;98563.00;;;19.67;100.00
54389;BME280;40975;50.390;8.640;2023-07-31T10:36:29;98560.75;;;19.89;100.00
54389;BME280;40975;50.390;8.640;2023-07-31T10:38:58;98563.78;;;19.99;97.97
54389;BME280;40975;50.390;8.640;2023-07-31T10:41:30;98556.97;;;19.97;96.79
54389;BME280;40975;50.390;8.640;2023-07-31T10:44:00;98561.75;;;19.95;98.19
54389;BME280;40975;50.390;8.640;2023-07-31T10:46:27;98566.34;;;20.13;96.41
54389;BME280;40975;50.390;8.640;2023-07-31T10:49:01;98552.81;;;20.38;94.97
54389;BME280;40975;50.390;8.640;2023-07-31T10:51:34;98566.63;;;20.97;94.64
54389;BME280;40975;50.390;8.640;2023-07-31T10:54:13;98553.34;;;20.84;91.82
54389;BME280;40975;50.390;8.640;2023-07-31T10:56:40;98548.31;;;20.69;92.16
54389;BME280;40975;50.390;8.640;2023-07-31T10:59:09;98552.88;;;20.50;94.00
54389;BME280;40975;50.390;8.640;2023-07-31T11:04:22;98544.88;;;20.25;93.42
54389;BME280;40975;50.390;8.640;2023-07-31T11:06:55;98543.22;;;20.24;91.80
54389;BME280;40975;50.390;8.640;2023-07-31T11:09:20;98546.91;;;20.29;90.31
54389;BME280;40975;50.390;8.640;2023-07-31T11:11:46;98536.34;;;20.46;89.00
54389;BME280;40975;50.390;8.640;2023-07-31T11:14:11;98541.44;;;20.55;87.62
54389;BME280;40975;50.390;8.640;2023-07-31T11:16:36;98530.91;;;20.34;93.48
54389;BME280;40975;50.390;8.640;2023-07-31T11:19:02;98534.72;;;20.27;95.11
54389;BME280;40975;50.390;8.640;2023-07-31T11:21:28;98526.75;;;19.95;96.69
54389;BME280;40975;50.390;8.640;2023-07-31T11:23:57;98520.41;;;19.57;100.00
54389;BME280;40975;50.390;8.640;2023-07-31T11:26:23;98523.56;;;19.54;100.00
54389;BME280;40975;50.390;8.640;2023-07-31T11:28:50;98518.38;;;19.52;99.79
54389;BME280;40975;50.390;8.640;2023-07-31T11:31:16;98521.72;;;19.73;97.27
54389;BME280;40975;50.390;8.640;2023-07-31T11:33:42;98515.25;;;20.06;94.13
54389;BME280;40975;50.390;8.640;2023-07-31T11:36:17;98528.09;;;20.23;89.70
54389;BME280;40975;50.390;8.640;2023-07-31T11:38:43;98520.19;;;20.28;90.33
54389;BME280;40975;50.390;8.640;2023-07-31T11:41:08;98509.94;;;20.18;90.11
54389;BME280;40975;50.390;8.640;2023-07-31T11:43:34;98512.25;;;20.14;90.86
54389;BME280;40975;50.390;8.640;2023-07-31T11:46:01;98508.75;;;20.14;89.08
54389;BME280;40975;50.390;8.640;2023-07-31T11:48:36;98504.78;;;20.16;86.49
54389;BME280;40975;50.390;8.640;2023-07-31T11:51:04;98499.91;;;20.25;84.93
54389;BME280;40975;50.390;8.640;2023-07-31T11:53:45;98502.13;;;20.47;87.79
54389;BME280;40975;50.390;8.640;2023-07-31T11:56:14;98485.78;;;20.60;85.42
54389;BME280;40975;50.390;8.640;2023-07-31T11:58:42;98499.50;;;20.59;83.17
54389;BME280;40975;50.390;8.640;2023-07-31T12:01:09;98490.22;;;20.55;81.14
54389;BME280;40975;50.390;8.640;2023-07-31T12:03:34;98493.00;;;20.48;80.66
54389;BME280;40975;50.390;8.640;2023-07-31T12:06:00;98484.59;;;20.75;78.39
54389;BME280;40975;50.390;8.640;2023-07-31T12:08:26;98486.28;;;20.88;77.12
54389;BME280;40975;50.390;8.640;2023-07-31T12:10:52;98487.84;;;20.95;77.84
54389;BME280;40975;50.390;8.640;2023-07-31T12:13:22;98487.47;;;20.92;77.53
54389;BME280;40975;50.390;8.640;2023-07-31T12:15:48;98477.06;;;20.95;77.41
54389;BME280;40975;50.390;8.640;2023-07-31T12:18:25;98473.63;;;20.88;76.34
54389;BME280;40975;50.390;8.640;2023-07-31T12:20:55;98477.97;;;20.89;77.35
54389;BME280;40975;50.390;8.640;2023-07-31T12:23:23;98469.88;;;20.89;77.04
54389;BME280;40975;50.390;8.640;2023-07-31T12:26:15;98486.69;;;21.03;77.92
54389;BME280;40975;50.390;8.640;2023-07-31T12:28:43;98471.53;;;21.02;76.02
54389;BME280;40975;50.390;8.640;2023-07-31T12:31:10;98468.31;;;21.24;75.94
54389;BME280;40975;50.390;8.640;2023-07-31T12:33:38;98461.88;;;21.25;74.04
54389;BME280;40975;50.390;8.640;2023-07-31T12:36:07;98461.34;;;21.58;75.13
54389;BME280;40975;50.390;8.640;2023-07-31T12:38:33;98459.91;;;21.68;75.49
54389;BME280;40975;50.390;8.640;2023-07-31T12:40:58;98456.66;;;21.78;71.82
54389;BME280;40975;50.390;8.640;2023-07-31T12:43:24;98448.28;;;21.79;72.38
54389;BME280;40975;50.390;8.640;2023-07-31T12:45:49;98440.31;;;21.84;72.60
54389;BME280;40975;50.390;8.640;2023-07-31T12:48:15;98440.66;;;21.76;70.88
54389;BME280;40975;50.390;8.640;2023-07-31T12:50:40;98433.97;;;21.79;71.44
54389;BME280;40975;50.390;8.640;2023-07-31T12:53:05;98438.34;;;21.80;72.86
54389;BME280;40975;50.390;8.640;2023-07-31T12:55:32;98428.09;;;21.82;71.65
54389;BME280;40975;50.390;8.640;2023-07-31T12:57:59;98430.78;;;21.82;71.55
54389;BME280;40975;50.390;8.640;2023-07-31T13:00:24;98419.66;;;21.66;70.88
54389;BME280;40975;50.390;8.640;2023-07-31T13:02:51;98419.41;;;21.44;72.42
54389;BME280;40975;50.390;8.640;2023-07-31T13:05:16;98424.81;;;21.44;72.45